createdAt,value
2023-05-15T00:00:48.117Z,8.40
2023-05-15T00:03:16.301Z,8.40
2023-05-15T00:05:44.454Z,8.40
2023-05-15T00:08:12.385Z,8.50
2023-05-15T00:10:42.905Z,8.50
2023-05-15T00:13:18.884Z,8.50
2023-05-15T00:15:48.416Z,8.50
2023-05-15T00:18:16.466Z,8.60
2023-05-15T00:20:44.354Z,8.60
2023-05-15T00:23:12.213Z,8.60
2023-05-15T00:25:40.086Z,8.60
2023-05-15T00:28:07.939Z,8.60
2023-05-15T00:30:35.826Z,8.60
2023-05-15T00:33:05.435Z,8.60
2023-05-15T00:35:33.746Z,8.60
2023-05-15T00:38:01.684Z,8.70
2023-05-15T00:40:31.947Z,8.70
2023-05-15T00:43:01.648Z,8.70
2023-05-15T00:45:31.131Z,8.70
2023-05-15T00:48:00.174Z,8.70
2023-05-15T00:50:30.263Z,8.60
2023-05-15T00:52:58.558Z,8.60
2023-05-15T00:55:28.021Z,8.70
2023-05-15T00:57:57.305Z,8.60
2023-05-15T01:00:26.761Z,8.60
2023-05-15T01:02:55.430Z,8.60
2023-05-15T01:05:23.589Z,8.50
2023-05-15T01:08:02.147Z,8.40
2023-05-15T01:10:30.516Z,8.40
2023-05-15T01:12:59.764Z,8.30
2023-05-15T01:15:27.755Z,8.20
2023-05-15T01:17:55.719Z,8.10
2023-05-15T01:20:24.444Z,8.10
2023-05-15T01:23:07.157Z,8.10
2023-05-15T01:25:58.157Z,8.00
2023-05-15T01:28:33.083Z,8.00
2023-05-15T01:31:05.446Z,7.90
2023-05-15T01:33:36.242Z,8.00
2023-05-15T01:36:14.553Z,7.90
2023-05-15T01:38:48.421Z,7.90
2023-05-15T01:41:21.077Z,7.80
2023-05-15T01:43:57.763Z,7.70
2023-05-15T01:46:30.963Z,7.60
2023-05-15T01:49:02.233Z,7.50
2023-05-15T01:51:31.389Z,7.40
2023-05-15T01:54:01.203Z,7.30
2023-05-15T01:56:29.782Z,7.20
2023-05-15T01:59:00.305Z,7.20
2023-05-15T02:01:30.846Z,7.10
2023-05-15T02:03:59.144Z,7.10
2023-05-15T02:06:27.064Z,7.00
2023-05-15T02:08:58.507Z,6.90
2023-05-15T02:11:26.372Z,6.90
2023-05-15T02:13:55.928Z,6.80
2023-05-15T02:16:25.281Z,6.70
2023-05-15T02:18:53.626Z,6.70
2023-05-15T02:21:21.895Z,6.60
2023-05-15T02:23:49.757Z,6.50
2023-05-15T02:26:31.743Z,6.40
2023-05-15T02:29:12.090Z,6.30
2023-05-15T02:31:48.517Z,6.30
2023-05-15T02:34:21.421Z,6.20
2023-05-15T02:36:53.048Z,6.20
2023-05-15T02:39:23.418Z,6.10
2023-05-15T02:41:52.337Z,6.10
2023-05-15T02:44:21.740Z,6.00
2023-05-15T02:46:51.968Z,6.00
2023-05-15T02:49:20.554Z,5.90
2023-05-15T02:51:48.407Z,5.80
2023-05-15T02:54:16.591Z,5.80
2023-05-15T02:56:44.467Z,5.70
2023-05-15T02:59:13.434Z,5.70
2023-05-15T03:01:41.634Z,5.70
2023-05-15T03:04:11.183Z,5.60
2023-05-15T03:06:39.060Z,5.60
2023-05-15T03:09:07.002Z,5.50
2023-05-15T03:11:35.016Z,5.50
2023-05-15T03:14:03.103Z,5.50
2023-05-15T03:16:31.109Z,5.50
2023-05-15T03:18:59.108Z,5.40
2023-05-15T03:21:28.340Z,5.30
2023-05-15T03:23:56.225Z,5.40
2023-05-15T03:26:24.272Z,5.40
2023-05-15T03:28:52.136Z,5.40
2023-05-15T03:31:20.075Z,5.40
2023-05-15T03:33:50.014Z,5.40
2023-05-15T03:36:18.032Z,5.40
2023-05-15T03:38:47.255Z,5.50
2023-05-15T03:41:15.172Z,5.50
2023-05-15T03:43:43.057Z,5.70
2023-05-15T03:46:11.178Z,5.70
2023-05-15T03:48:42.110Z,5.80
2023-05-15T03:51:10.038Z,5.90
2023-05-15T03:53:37.987Z,6.10
2023-05-15T03:56:07.516Z,6.20
2023-05-15T03:58:35.812Z,6.30
2023-05-15T04:01:03.736Z,6.30
2023-05-15T04:03:31.611Z,6.40
2023-05-15T04:05:59.473Z,6.50
2023-05-15T04:08:27.347Z,6.60
2023-05-15T04:10:55.258Z,6.70
2023-05-15T04:13:24.468Z,6.80
2023-05-15T04:15:52.839Z,6.90
2023-05-15T04:18:20.937Z,7.00
2023-05-15T04:20:48.791Z,7.20
2023-05-15T04:23:16.629Z,7.30
2023-05-15T04:25:46.702Z,7.40
2023-05-15T04:28:14.649Z,7.60
2023-05-15T04:30:43.815Z,7.90
2023-05-15T04:33:12.103Z,8.00
2023-05-15T04:35:40.280Z,8.10
2023-05-15T04:38:08.176Z,8.10
2023-05-15T04:40:36.088Z,8.30
2023-05-15T04:43:04.242Z,8.40
2023-05-15T04:45:32.203Z,8.50
2023-05-15T04:48:01.509Z,8.60
2023-05-15T04:50:29.603Z,8.70
2023-05-15T04:52:57.655Z,8.80
2023-05-15T04:55:25.647Z,9.00
2023-05-15T04:57:53.613Z,9.20
2023-05-15T05:00:21.494Z,9.30
2023-05-15T05:02:49.372Z,9.40
2023-05-15T05:05:18.677Z,9.50
2023-05-15T05:07:46.552Z,9.60
2023-05-15T05:10:14.648Z,9.80
2023-05-15T05:12:42.520Z,9.90
2023-05-15T05:15:11.454Z,10.10
2023-05-15T05:17:39.336Z,10.40
2023-05-15T05:20:12.686Z,10.50
2023-05-15T05:22:42.664Z,10.70
2023-05-15T05:25:11.014Z,10.80
2023-05-15T05:27:38.918Z,11.00
2023-05-15T05:30:08.706Z,11.20
2023-05-15T05:32:36.683Z,11.60
2023-05-15T05:35:05.045Z,11.80
2023-05-15T05:37:32.914Z,12.20
2023-05-15T05:40:02.113Z,12.90
2023-05-15T05:42:29.976Z,13.50
2023-05-15T05:44:57.927Z,14.70
2023-05-15T05:47:25.769Z,15.90
2023-05-15T05:49:55.056Z,17.10
2023-05-15T05:52:23.015Z,17.70
2023-05-15T05:54:53.321Z,19.00
2023-05-15T05:57:22.517Z,20.00
2023-05-15T05:59:50.766Z,20.90
2023-05-15T06:02:18.783Z,21.20
2023-05-15T06:04:47.045Z,22.10
2023-05-15T06:07:14.950Z,22.50
2023-05-15T06:09:42.816Z,22.50
2023-05-15T06:12:11.143Z,23.10
2023-05-15T06:14:40.399Z,23.90
2023-05-15T06:17:08.387Z,24.10
2023-05-15T06:19:36.456Z,24.10
2023-05-15T06:22:04.516Z,24.10
2023-05-15T06:24:32.455Z,24.50
2023-05-15T06:27:00.981Z,24.50
2023-05-15T06:29:28.822Z,24.80
2023-05-15T06:31:58.375Z,26.00
2023-05-15T06:34:26.279Z,26.30
2023-05-15T06:36:54.146Z,26.90
2023-05-15T06:39:22.013Z,26.40
2023-05-15T06:41:50.295Z,26.20
2023-05-15T06:44:19.952Z,26.30
2023-05-15T06:46:47.911Z,26.50
2023-05-15T06:49:17.316Z,27.20
2023-05-15T06:51:45.195Z,28.20
2023-05-15T06:54:13.072Z,28.50
2023-05-15T06:56:41.092Z,28.60
2023-05-15T06:59:08.934Z,28.60
2023-05-15T07:01:38.333Z,28.70
2023-05-15T07:04:06.447Z,28.50
2023-05-15T07:06:36.378Z,28.40
2023-05-15T07:09:04.579Z,28.80
2023-05-15T07:11:33.480Z,28.00
2023-05-15T07:14:01.769Z,26.60
2023-05-15T07:16:29.582Z,26.00
2023-05-15T07:18:57.723Z,25.30
2023-05-15T07:21:25.741Z,25.40
2023-05-15T07:23:55.028Z,25.60
2023-05-15T07:26:34.235Z,26.00
2023-05-15T07:29:04.629Z,26.80
2023-05-15T07:31:33.618Z,28.20
2023-05-15T07:34:01.906Z,28.50
2023-05-15T07:36:29.853Z,29.40
2023-05-15T07:38:59.504Z,29.40
2023-05-15T07:41:27.335Z,29.00
2023-05-15T07:43:55.165Z,29.60
2023-05-15T07:46:23.051Z,29.40
2023-05-15T07:48:51.194Z,30.70
2023-05-15T07:51:18.998Z,30.60
2023-05-15T07:53:47.125Z,30.80
2023-05-15T07:56:16.559Z,30.40
2023-05-15T07:58:44.431Z,29.60
2023-05-15T08:01:12.488Z,28.60
2023-05-15T08:03:40.371Z,26.80
2023-05-15T08:06:08.529Z,26.30
2023-05-15T08:08:36.389Z,26.40
2023-05-15T08:11:04.362Z,26.80
2023-05-15T08:13:33.664Z,27.90
2023-05-15T08:16:01.587Z,28.20
2023-05-15T08:18:29.631Z,27.10
2023-05-15T08:20:57.914Z,27.10
2023-05-15T08:23:25.970Z,28.20
2023-05-15T08:25:53.915Z,29.10
2023-05-15T08:28:21.949Z,29.90
2023-05-15T08:30:51.322Z,29.60
2023-05-15T08:33:19.401Z,29.30
2023-05-15T08:35:47.282Z,27.80
2023-05-15T08:38:15.166Z,27.00
2023-05-15T08:40:47.076Z,27.10
2023-05-15T08:43:17.753Z,28.70
2023-05-15T08:45:46.086Z,28.20
2023-05-15T08:48:20.455Z,28.20
2023-05-15T08:50:48.887Z,26.80
2023-05-15T08:53:17.092Z,27.60
2023-05-15T08:55:45.407Z,28.70
2023-05-15T08:58:14.479Z,27.20
2023-05-15T09:00:42.515Z,24.90
2023-05-15T09:03:15.885Z,23.10
2023-05-15T09:05:44.203Z,23.50
2023-05-15T09:08:12.725Z,24.10
2023-05-15T09:10:41.230Z,25.60
2023-05-15T09:13:10.225Z,26.50
2023-05-15T09:15:39.326Z,25.90
2023-05-15T09:18:08.843Z,24.50
2023-05-15T09:20:39.104Z,24.00
2023-05-15T09:23:22.775Z,21.80
2023-05-15T09:25:53.422Z,21.80
2023-05-15T09:28:29.597Z,23.70
2023-05-15T09:31:02.494Z,24.10
2023-05-15T09:33:33.053Z,23.80
2023-05-15T09:36:02.778Z,23.20
2023-05-15T09:38:30.969Z,21.70
2023-05-15T09:41:03.856Z,20.80
2023-05-15T09:43:35.321Z,20.30
2023-05-15T09:46:03.313Z,19.10
2023-05-15T09:48:32.384Z,19.10
2023-05-15T09:51:02.238Z,19.00
2023-05-15T09:53:30.564Z,20.80
2023-05-15T09:55:58.738Z,21.60
2023-05-15T09:58:26.809Z,20.80
2023-05-15T10:00:54.675Z,19.40
2023-05-15T10:03:22.558Z,18.40
2023-05-15T10:05:50.876Z,17.70
2023-05-15T10:08:28.092Z,17.10
2023-05-15T10:11:00.198Z,16.70
2023-05-15T10:13:28.807Z,16.70
2023-05-15T10:15:58.419Z,16.80
2023-05-15T10:18:29.068Z,16.70
2023-05-15T10:20:58.368Z,16.90
2023-05-15T10:23:28.292Z,17.40
2023-05-15T10:26:03.258Z,18.20
2023-05-15T10:28:32.451Z,18.90
2023-05-15T10:31:02.584Z,19.50
2023-05-15T10:33:31.088Z,19.90
2023-05-15T10:35:59.966Z,20.70
2023-05-15T10:38:31.550Z,21.30
2023-05-15T10:41:16.073Z,21.30
2023-05-15T10:43:45.193Z,21.20
2023-05-15T10:46:14.890Z,20.50
2023-05-15T10:48:43.346Z,20.40
2023-05-15T10:51:16.745Z,20.70
2023-05-15T10:53:46.885Z,20.50
2023-05-15T10:56:16.665Z,19.40
2023-05-15T10:58:48.786Z,19.30
2023-05-15T11:01:28.022Z,19.40
2023-05-15T11:04:13.708Z,19.50
2023-05-15T11:06:43.776Z,19.30
2023-05-15T11:09:35.417Z,19.20
2023-05-15T11:12:04.163Z,19.10
2023-05-15T11:14:32.841Z,18.90
2023-05-15T11:17:04.074Z,19.00
2023-05-15T11:19:40.654Z,19.10
2023-05-15T11:22:20.188Z,19.60
2023-05-15T11:24:55.805Z,20.20
2023-05-15T11:27:25.862Z,20.70
2023-05-15T11:30:14.753Z,21.10
2023-05-15T11:32:45.234Z,21.20
2023-05-15T11:35:15.209Z,21.90
2023-05-15T11:37:44.673Z,21.70
2023-05-15T11:40:21.301Z,22.20
2023-05-15T11:43:06.691Z,21.80
2023-05-15T11:45:37.057Z,22.10
2023-05-15T11:48:06.995Z,21.90
2023-05-15T11:50:36.288Z,21.30
2023-05-15T11:53:06.318Z,21.00
2023-05-15T11:55:38.155Z,20.50
2023-05-15T11:58:07.651Z,20.60
2023-05-15T12:00:35.546Z,20.10
2023-05-15T12:03:04.704Z,20.10
2023-05-15T12:05:32.938Z,19.70
2023-05-15T12:08:02.582Z,19.80
2023-05-15T12:10:32.086Z,20.00
2023-05-15T12:13:01.451Z,20.20
2023-05-15T12:15:29.272Z,19.70
2023-05-15T12:17:57.159Z,19.70
2023-05-15T12:20:25.275Z,19.30
2023-05-15T12:22:53.321Z,18.10
2023-05-15T12:25:21.551Z,17.70
2023-05-15T12:27:49.456Z,17.20
2023-05-15T12:30:19.203Z,17.00
2023-05-15T12:32:47.393Z,17.00
2023-05-15T12:35:15.432Z,16.90
2023-05-15T12:37:43.511Z,16.90
2023-05-15T12:40:12.410Z,17.30
2023-05-15T12:42:41.686Z,17.50
2023-05-15T12:45:18.451Z,17.90
2023-05-15T12:47:47.325Z,18.20
2023-05-15T12:50:16.924Z,18.40
2023-05-15T12:52:51.902Z,19.20
2023-05-15T12:55:23.215Z,20.00
2023-05-15T12:57:51.187Z,19.90
2023-05-15T13:00:23.385Z,20.10
2023-05-15T13:02:53.590Z,19.60
2023-05-15T13:05:24.002Z,19.20
2023-05-15T13:07:52.490Z,19.50
2023-05-15T13:10:23.604Z,20.10
2023-05-15T13:12:52.941Z,20.80
2023-05-15T13:15:27.361Z,20.50
2023-05-15T13:17:58.917Z,20.80
2023-05-15T13:20:27.910Z,20.80
2023-05-15T13:22:55.924Z,20.80
2023-05-15T13:25:23.847Z,20.50
2023-05-15T13:27:52.250Z,21.00
2023-05-15T13:30:20.407Z,20.50
2023-05-15T13:32:49.599Z,20.70
2023-05-15T13:35:17.543Z,20.80
2023-05-15T13:37:45.467Z,20.70
2023-05-15T13:40:13.971Z,20.80
2023-05-15T13:42:43.142Z,19.30
2023-05-15T13:45:12.785Z,19.20
2023-05-15T13:47:40.692Z,19.20
2023-05-15T13:50:12.860Z,19.20
2023-05-15T13:52:41.853Z,19.20
2023-05-15T13:55:11.386Z,19.30
2023-05-15T13:57:40.042Z,19.30
2023-05-15T14:00:10.841Z,19.70
2023-05-15T14:02:38.826Z,20.00
2023-05-15T14:05:07.246Z,20.50
2023-05-15T14:07:36.555Z,20.80
2023-05-15T14:10:05.241Z,20.30
2023-05-15T14:12:33.743Z,19.70
2023-05-15T14:15:01.956Z,19.80
2023-05-15T14:17:30.076Z,20.30
2023-05-15T14:19:58.273Z,20.50
2023-05-15T14:22:26.489Z,19.90
2023-05-15T14:24:55.767Z,19.90
2023-05-15T14:27:23.743Z,20.50
2023-05-15T14:29:52.000Z,21.10
2023-05-15T14:32:19.987Z,21.70
2023-05-15T14:34:47.879Z,22.10
2023-05-15T14:37:15.810Z,22.30
2023-05-15T14:39:43.781Z,22.00
2023-05-15T14:42:13.614Z,22.30
2023-05-15T14:44:41.530Z,22.30
2023-05-15T14:47:10.814Z,22.00
2023-05-15T14:49:38.757Z,22.10
2023-05-15T14:52:08.731Z,21.40
2023-05-15T14:54:37.183Z,20.70
2023-05-15T14:57:06.284Z,20.60
2023-05-15T14:59:36.224Z,20.20
2023-05-15T15:02:04.455Z,20.40
2023-05-15T15:04:34.425Z,19.60
2023-05-15T15:07:05.057Z,19.10
2023-05-15T15:09:33.176Z,18.60
2023-05-15T15:12:01.101Z,18.30
2023-05-15T15:14:29.466Z,18.00
2023-05-15T15:16:58.910Z,18.00
2023-05-15T15:19:26.905Z,18.00
2023-05-15T15:21:55.033Z,18.20
2023-05-15T15:24:22.907Z,18.10
2023-05-15T15:26:50.907Z,17.90
2023-05-15T15:29:18.834Z,17.60
2023-05-15T15:31:46.722Z,17.60
2023-05-15T15:34:16.478Z,17.80
2023-05-15T15:36:45.030Z,17.90
2023-05-15T15:39:13.265Z,18.10
2023-05-15T15:41:41.196Z,18.00
2023-05-15T15:44:09.110Z,17.60
2023-05-15T15:46:37.009Z,17.30
2023-05-15T15:49:06.783Z,16.60
2023-05-15T15:51:36.222Z,16.30
2023-05-15T15:54:04.125Z,16.10
2023-05-15T15:56:31.995Z,15.60
2023-05-15T15:58:59.863Z,15.30
2023-05-15T16:01:28.633Z,15.00
2023-05-15T16:03:56.645Z,14.80
2023-05-15T16:06:24.554Z,14.40
2023-05-15T16:08:53.695Z,14.20
2023-05-15T16:11:21.683Z,14.00
2023-05-15T16:13:49.725Z,14.00
2023-05-15T16:16:17.748Z,14.00
2023-05-15T16:18:45.755Z,14.00
2023-05-15T16:21:14.301Z,14.20
2023-05-15T16:23:42.378Z,14.40
2023-05-15T16:26:11.936Z,14.70
2023-05-15T16:28:41.915Z,14.90
2023-05-15T16:31:10.434Z,15.30
2023-05-15T16:33:38.276Z,15.60
2023-05-15T16:36:06.975Z,15.90
2023-05-15T16:38:34.777Z,16.10
2023-05-15T16:41:03.464Z,16.40
2023-05-15T16:43:32.706Z,16.60
2023-05-15T16:46:00.600Z,16.80
2023-05-15T16:48:28.808Z,16.80
2023-05-15T16:50:56.830Z,16.90
2023-05-15T16:53:24.923Z,17.00
2023-05-15T16:55:54.030Z,16.80
2023-05-15T16:58:21.950Z,16.60
2023-05-15T17:00:51.149Z,16.50
2023-05-15T17:03:19.268Z,16.30
2023-05-15T17:05:48.767Z,16.10
2023-05-15T17:08:16.703Z,15.90
2023-05-15T17:10:44.536Z,15.70
2023-05-15T17:13:12.418Z,15.60
2023-05-15T17:15:40.265Z,15.40
2023-05-15T17:18:09.502Z,15.20
2023-05-15T17:20:37.338Z,15.10
2023-05-15T17:23:05.306Z,15.00
2023-05-15T17:25:33.132Z,15.00
2023-05-15T17:28:01.011Z,14.80
2023-05-15T17:30:28.957Z,14.70
2023-05-15T17:32:56.964Z,14.60
2023-05-15T17:35:26.438Z,14.50
2023-05-15T17:37:54.502Z,14.30
2023-05-15T17:40:22.403Z,14.30
2023-05-15T17:42:50.213Z,14.20
2023-05-15T17:45:18.312Z,14.10
2023-05-15T17:47:46.198Z,13.90
2023-05-15T17:50:14.091Z,13.80
2023-05-15T17:52:43.310Z,13.70
2023-05-15T17:55:11.279Z,13.60
2023-05-15T17:57:39.122Z,13.60
2023-05-15T18:00:08.276Z,13.60
2023-05-15T18:02:45.294Z,13.60
2023-05-15T18:05:13.262Z,13.60
2023-05-15T18:07:42.293Z,13.60
2023-05-15T18:10:12.760Z,13.60
2023-05-15T18:12:41.027Z,13.50
2023-05-15T18:15:10.174Z,13.40
2023-05-15T18:17:38.139Z,13.40
2023-05-15T18:20:07.280Z,13.30
2023-05-15T18:22:35.923Z,13.10
2023-05-15T18:25:03.854Z,12.90
2023-05-15T18:27:33.041Z,12.70
2023-05-15T18:30:00.899Z,12.50
2023-05-15T18:32:28.801Z,12.20
2023-05-15T18:34:56.687Z,12.10
2023-05-15T18:37:24.554Z,11.90
2023-05-15T18:39:52.441Z,11.70
2023-05-15T18:42:20.311Z,11.60
2023-05-15T18:44:49.602Z,11.40
2023-05-15T18:47:17.614Z,11.20
2023-05-15T18:49:45.579Z,11.20
2023-05-15T18:52:13.759Z,11.00
2023-05-15T18:54:42.298Z,10.90
2023-05-15T18:57:10.226Z,10.80
2023-05-15T18:59:38.093Z,10.60
2023-05-15T19:02:09.359Z,10.50
2023-05-15T19:04:37.363Z,10.50
2023-05-15T19:07:05.352Z,10.40
2023-05-15T19:09:33.281Z,10.20
2023-05-15T19:12:02.421Z,10.10
2023-05-15T19:14:30.437Z,10.10
2023-05-15T19:16:58.475Z,10.10
2023-05-15T19:19:28.149Z,10.00
2023-05-15T19:21:56.005Z,9.90
2023-05-15T19:24:24.011Z,9.80
2023-05-15T19:26:51.861Z,9.80
2023-05-15T19:29:19.762Z,9.80
2023-05-15T19:31:47.730Z,9.80
2023-05-15T19:34:15.580Z,9.70
2023-05-15T19:36:46.526Z,9.70
2023-05-15T19:39:14.476Z,9.70
2023-05-15T19:41:42.633Z,9.70
2023-05-15T19:44:10.481Z,9.70
2023-05-15T19:46:38.919Z,9.70
2023-05-15T19:49:07.136Z,9.80
2023-05-15T19:51:35.128Z,9.90
2023-05-15T19:54:04.386Z,10.00
2023-05-15T19:56:32.205Z,10.00
2023-05-15T19:59:00.475Z,10.00
2023-05-15T20:01:28.385Z,9.90
2023-05-15T20:03:56.487Z,9.80
2023-05-15T20:06:24.505Z,9.80
2023-05-15T20:08:52.325Z,9.70
2023-05-15T20:11:22.977Z,9.70
2023-05-15T20:13:51.526Z,9.60
2023-05-15T20:16:19.442Z,9.60
2023-05-15T20:18:47.965Z,9.60
2023-05-15T20:21:16.813Z,9.70
2023-05-15T20:23:44.661Z,9.70
2023-05-15T20:26:12.519Z,9.70
2023-05-15T20:28:43.180Z,9.70
2023-05-15T20:31:12.842Z,9.70
2023-05-15T20:33:40.818Z,9.60
2023-05-15T20:36:09.299Z,9.50
2023-05-15T20:38:38.530Z,9.50
2023-05-15T20:41:06.382Z,9.40
2023-05-15T20:43:34.212Z,9.30
2023-05-15T20:46:03.488Z,9.30
2023-05-15T20:48:31.329Z,9.20
2023-05-15T20:50:59.158Z,9.10
2023-05-15T20:53:28.554Z,9.10
2023-05-15T20:55:56.420Z,9.00
2023-05-15T20:58:24.334Z,9.00
2023-05-15T21:00:52.217Z,8.90
2023-05-15T21:03:21.604Z,8.90
2023-05-15T21:05:49.890Z,8.80
2023-05-15T21:08:17.955Z,8.80
2023-05-15T21:10:50.901Z,8.70
2023-05-15T21:13:19.048Z,8.70
2023-05-15T21:15:46.885Z,8.60
2023-05-15T21:18:14.823Z,8.70
2023-05-15T21:20:44.018Z,8.60
2023-05-15T21:23:12.040Z,8.60
2023-05-15T21:25:40.207Z,8.60
2023-05-15T21:28:08.165Z,8.50
2023-05-15T21:30:35.968Z,8.40
2023-05-15T21:33:03.958Z,8.40
2023-05-15T21:35:31.995Z,8.30
2023-05-15T21:38:01.362Z,8.30
2023-05-15T21:40:29.257Z,8.20
2023-05-15T21:42:57.177Z,8.20
2023-05-15T21:45:25.001Z,8.10
2023-05-15T21:47:53.135Z,8.10
2023-05-15T21:50:21.109Z,8.10
2023-05-15T21:52:50.812Z,8.20
2023-05-15T21:55:20.760Z,8.10
2023-05-15T21:57:48.610Z,8.00
2023-05-15T22:00:17.224Z,7.90
2023-05-15T22:02:45.211Z,7.90
2023-05-15T22:05:13.398Z,7.90
2023-05-15T22:07:41.311Z,7.80
2023-05-15T22:10:13.770Z,7.80
2023-05-15T22:12:43.221Z,7.80
2023-05-15T22:15:12.636Z,7.80
2023-05-15T22:17:40.510Z,7.70
2023-05-15T22:20:11.547Z,7.70
2023-05-15T22:22:40.476Z,7.70
2023-05-15T22:25:09.113Z,7.70
2023-05-15T22:27:37.131Z,7.70
2023-05-15T22:30:07.789Z,7.70
2023-05-15T22:32:35.927Z,7.60
2023-05-15T22:35:04.415Z,7.50
2023-05-15T22:37:32.315Z,7.50
2023-05-15T22:40:00.445Z,7.50
2023-05-15T22:42:28.789Z,7.50
2023-05-15T22:44:57.711Z,7.50
2023-05-15T22:47:28.263Z,7.50
2023-05-15T22:49:56.602Z,7.50
2023-05-15T22:52:25.202Z,7.50
2023-05-15T22:54:53.115Z,7.40
2023-05-15T22:57:20.924Z,7.40
2023-05-15T22:59:49.369Z,7.30
2023-05-15T23:02:17.333Z,7.40
2023-05-15T23:04:46.772Z,7.30
2023-05-15T23:07:14.623Z,7.40
2023-05-15T23:09:42.626Z,7.50
2023-05-15T23:12:10.659Z,7.50
2023-05-15T23:14:38.461Z,7.60
2023-05-15T23:17:06.514Z,7.60
2023-05-15T23:19:34.376Z,7.70
2023-05-15T23:22:03.561Z,7.70
2023-05-15T23:24:31.400Z,7.70
2023-05-15T23:26:59.222Z,7.80
2023-05-15T23:29:26.994Z,7.80
2023-05-15T23:31:57.638Z,7.80
2023-05-15T23:34:25.601Z,7.70
2023-05-15T23:36:53.396Z,7.70
2023-05-15T23:39:22.565Z,7.70
2023-05-15T23:41:50.399Z,7.70
2023-05-15T23:44:18.324Z,7.70
2023-05-15T23:46:46.293Z,7.90
2023-05-15T23:49:14.128Z,7.90
2023-05-15T23:51:43.867Z,8.00
2023-05-15T23:54:12.179Z,8.10
2023-05-15T23:56:41.469Z,8.20
2023-05-15T23:59:09.382Z,8.20
